Time;durP1;ratioP1;P1;durP2;ratioP2;P2;SDS_P1;SDS_P2;PMS_P1;PMS_P2;Temp;Humidity;BMP_temperature;BMP_pressure;BME280_temperature;BME280_humidity;BME280_pressure;Samples;Min_cycle;Max_cycle;Signal;HPM_P1;HPM_P2
2022/04/01 00:00:52;;;;;;;;;;;21.90;37.40;;;;;;464613;256;1347;-59
2022/04/01 00:02:53;;;;;;;;;;;21.80;37.40;;;;;;464513;256;1097;-60
2022/04/01 00:04:55;;;;;;;;;;;21.90;37.30;;;;;;464525;256;1081;-59
2022/04/01 00:06:56;;;;;;;;;;;21.80;37.30;;;;;;464577;256;1200;-60
2022/04/01 00:08:57;;;;;;;;;;;21.80;37.50;;;;;;464901;256;973;-59
2022/04/01 00:10:59;;;;;;;;;;;21.80;37.40;;;;;;464508;256;2205;-59
2022/04/01 00:13:00;;;;;;;;;;;21.80;37.50;;;;;;464475;256;1205;-59
2022/04/01 00:15:02;;;;;;;;;;;21.80;37.50;;;;;;464920;256;1071;-59
2022/04/01 00:17:03;;;;;;;;;;;21.90;37.30;;;;;;464691;256;1199;-60
2022/04/01 00:19:05;;;;;;;;;;;22.00;37.10;;;;;;464525;256;1091;-59
2022/04/01 00:21:05;;;;;;;;;;;22.10;37.00;;;;;;464661;256;1389;-59
2022/04/01 00:23:07;;;;;;;;;;;22.20;36.80;;;;;;464543;256;1044;-59
2022/04/01 00:25:08;;;;;;;;;;;22.30;36.60;;;;;;464785;256;996;-59
2022/04/01 00:27:09;;;;;;;;;;;22.40;36.50;;;;;;464745;256;1309;-60
2022/04/01 00:29:15;;;;;;;;;;;22.50;36.30;;;;;;464382;256;1210;-59
2022/04/01 00:31:16;;;;;;;;;;;22.50;36.40;;;;;;464601;256;2131;-60
2022/04/01 00:33:18;;;;;;;;;;;22.60;36.10;;;;;;464508;256;1177;-59
2022/04/01 00:35:19;;;;;;;;;;;22.60;36.00;;;;;;464462;256;1075;-59
2022/04/01 00:37:20;;;;;;;;;;;22.70;36.00;;;;;;464599;256;1244;-59
2022/04/01 00:39:22;;;;;;;;;;;22.60;36.00;;;;;;464536;256;948;-60
2022/04/01 00:41:23;;;;;;;;;;;22.60;36.00;;;;;;464464;256;1190;-59
2022/04/01 00:43:24;;;;;;;;;;;22.60;36.10;;;;;;464475;256;1132;-60
2022/04/01 00:45:26;;;;;;;;;;;22.50;36.30;;;;;;464541;256;993;-59
2022/04/01 00:47:27;;;;;;;;;;;22.40;36.40;;;;;;464528;256;1240;-59
2022/04/01 00:49:28;;;;;;;;;;;22.30;36.60;;;;;;464521;256;940;-59
2022/04/01 00:51:30;;;;;;;;;;;22.30;36.60;;;;;;464665;256;2191;-59
2022/04/01 00:53:31;;;;;;;;;;;22.20;36.70;;;;;;464424;256;1102;-59
2022/04/01 00:55:33;;;;;;;;;;;22.20;36.90;;;;;;464640;256;1063;-60
2022/04/01 00:57:34;;;;;;;;;;;22.10;37.00;;;;;;464420;256;1370;-59
2022/04/01 00:59:35;;;;;;;;;;;22.10;37.10;;;;;;464591;256;1181;-59
2022/04/01 01:01:36;;;;;;;;;;;22.00;37.10;;;;;;464659;256;1342;-59
2022/04/01 01:03:38;;;;;;;;;;;22.00;37.20;;;;;;464763;256;1131;-59
2022/04/01 01:05:39;;;;;;;;;;;22.00;37.20;;;;;;464828;256;1092;-59
2022/04/01 01:07:42;;;;;;;;;;;21.90;37.30;;;;;;464503;256;1227;-60
2022/04/01 01:09:42;;;;;;;;;;;21.90;37.40;;;;;;464450;257;2271;-59
2022/04/01 01:11:43;;;;;;;;;;;21.90;37.40;;;;;;464434;256;2210;-59
2022/04/01 01:13:45;;;;;;;;;;;21.90;37.50;;;;;;464770;256;1152;-59
2022/04/01 01:15:46;;;;;;;;;;;21.90;37.40;;;;;;464619;256;1441;-59
2022/04/01 01:17:47;;;;;;;;;;;21.90;37.50;;;;;;464469;256;1124;-59
2022/04/01 01:19:49;;;;;;;;;;;21.90;37.40;;;;;;464793;256;1122;-59
2022/04/01 01:21:50;;;;;;;;;;;21.90;37.40;;;;;;464450;256;1374;-59
2022/04/01 01:23:51;;;;;;;;;;;21.90;37.40;;;;;;464951;256;1072;-59
2022/04/01 01:25:53;;;;;;;;;;;22.00;37.30;;;;;;464486;256;1267;-59
2022/04/01 01:27:54;;;;;;;;;;;22.00;37.30;;;;;;464666;256;986;-60
2022/04/01 01:29:55;;;;;;;;;;;22.00;37.40;;;;;;464609;256;1394;-59
2022/04/01 01:31:57;;;;;;;;;;;21.90;37.40;;;;;;464479;256;2135;-60
2022/04/01 01:33:58;;;;;;;;;;;21.90;37.40;;;;;;464535;256;1104;-59
2022/04/01 01:35:59;;;;;;;;;;;21.90;37.50;;;;;;464645;256;1471;-59
2022/04/01 01:38:01;;;;;;;;;;;21.90;37.40;;;;;;464530;256;1051;-59
2022/04/01 01:40:03;;;;;;;;;;;21.90;37.50;;;;;;464521;256;1091;-59
2022/04/01 01:42:06;;;;;;;;;;;21.90;37.40;;;;;;464442;256;1390;-59
2022/04/01 01:44:06;;;;;;;;;;;21.90;37.40;;;;;;464720;257;1436;-59
2022/04/01 01:46:07;;;;;;;;;;;21.90;37.40;;;;;;464802;256;1219;-59
2022/04/01 01:48:09;;;;;;;;;;;21.80;37.50;;;;;;464506;256;1146;-59
2022/04/01 01:54:50;;;;;;;;;;;21.80;37.50;;;;;;464632;257;1035;-58
2022/04/01 01:56:52;;;;;;;;;;;21.80;37.40;;;;;;464742;256;1209;-59
2022/04/01 01:58:53;;;;;;;;;;;21.90;37.40;;;;;;464542;256;1282;-59
2022/04/01 02:00:54;;;;;;;;;;;21.90;37.20;;;;;;464483;256;1364;-59
2022/04/01 02:02:56;;;;;;;;;;;22.00;37.00;;;;;;464470;256;1094;-59
2022/04/01 02:04:56;;;;;;;;;;;22.20;36.80;;;;;;464620;256;1387;-60
2022/04/01 02:06:57;;;;;;;;;;;22.30;36.70;;;;;;464427;256;1158;-59
2022/04/01 02:08:59;;;;;;;;;;;22.30;36.50;;;;;;464508;256;1050;-59
2022/04/01 02:11:00;;;;;;;;;;;22.40;36.50;;;;;;464677;256;1245;-59
2022/04/01 02:13:02;;;;;;;;;;;22.50;36.30;;;;;;464484;256;2210;-60
2022/04/01 02:15:03;;;;;;;;;;;22.50;36.20;;;;;;464563;256;1217;-59
2022/04/01 02:17:04;;;;;;;;;;;22.60;36.10;;;;;;464430;256;1201;-59
2022/04/01 02:19:06;;;;;;;;;;;22.70;35.90;;;;;;464498;256;1117;-59
2022/04/01 02:21:10;;;;;;;;;;;22.70;36.00;;;;;;464582;256;1300;-59
2022/04/01 02:23:11;;;;;;;;;;;22.60;35.90;;;;;;464341;257;1562;-60
2022/04/01 02:25:11;;;;;;;;;;;22.70;36.00;;;;;;464578;257;1411;-59
2022/04/01 02:27:13;;;;;;;;;;;22.60;36.10;;;;;;464591;256;1316;-59
2022/04/01 02:29:14;;;;;;;;;;;22.50;36.20;;;;;;464617;256;1221;-59
2022/04/01 02:31:15;;;;;;;;;;;22.40;36.40;;;;;;464426;256;1258;-59
2022/04/01 02:33:17;;;;;;;;;;;22.40;36.50;;;;;;464594;256;2156;-59
2022/04/01 02:35:18;;;;;;;;;;;22.30;36.60;;;;;;464707;256;1062;-59
2022/04/01 02:37:21;;;;;;;;;;;22.20;36.70;;;;;;464381;256;1153;-59
2022/04/01 02:39:21;;;;;;;;;;;22.20;36.70;;;;;;464605;257;1524;-59
2022/04/01 02:41:22;;;;;;;;;;;22.10;36.80;;;;;;464733;256;1186;-59
2022/04/01 02:43:23;;;;;;;;;;;22.10;36.90;;;;;;464647;256;965;-60
2022/04/01 02:45:25;;;;;;;;;;;22.00;37.00;;;;;;464615;256;1217;-59
2022/04/01 02:47:26;;;;;;;;;;;22.00;37.00;;;;;;464577;256;1178;-59
2022/04/01 02:49:27;;;;;;;;;;;22.00;37.00;;;;;;464688;256;1174;-60
2022/04/01 02:51:29;;;;;;;;;;;22.00;37.00;;;;;;464573;256;1133;-59
2022/04/01 02:53:30;;;;;;;;;;;21.90;37.00;;;;;;464471;256;2199;-59
2022/04/01 02:55:32;;;;;;;;;;;21.90;37.00;;;;;;464682;256;1008;-59
2022/04/01 02:57:33;;;;;;;;;;;22.00;37.00;;;;;;464446;256;1091;-59
2022/04/01 02:59:34;;;;;;;;;;;22.00;36.90;;;;;;464492;256;1184;-59
2022/04/01 03:01:36;;;;;;;;;;;21.90;36.90;;;;;;464581;256;966;-59
2022/04/01 03:03:37;;;;;;;;;;;21.90;36.90;;;;;;464500;256;1119;-59
2022/04/01 03:05:39;;;;;;;;;;;21.90;36.90;;;;;;464665;256;1027;-59
2022/04/01 03:07:40;;;;;;;;;;;21.90;36.90;;;;;;464587;256;1242;-58
2022/04/01 03:09:41;;;;;;;;;;;21.90;36.90;;;;;;464483;256;999;-59
2022/04/01 03:11:43;;;;;;;;;;;21.90;36.90;;;;;;464621;256;1242;-58
2022/04/01 03:13:44;;;;;;;;;;;22.00;36.80;;;;;;464439;256;2206;-59
2022/04/01 03:15:47;;;;;;;;;;;21.90;36.90;;;;;;464613;256;1171;-59
2022/04/01 03:17:47;;;;;;;;;;;21.90;36.90;;;;;;464499;257;2087;-59
2022/04/01 03:19:48;;;;;;;;;;;21.90;36.90;;;;;;464531;256;1091;-59
2022/04/01 03:21:50;;;;;;;;;;;21.90;36.70;;;;;;464491;256;1001;-59
2022/04/01 03:23:51;;;;;;;;;;;21.90;36.80;;;;;;464513;256;987;-60
2022/04/01 03:25:53;;;;;;;;;;;21.90;36.80;;;;;;464413;256;1145;-59
2022/04/01 03:27:54;;;;;;;;;;;21.90;36.80;;;;;;464830;256;1047;-60
2022/04/01 03:29:55;;;;;;;;;;;21.90;36.80;;;;;;464491;256;1152;-60
2022/04/01 03:31:56;;;;;;;;;;;21.90;36.70;;;;;;464482;256;1160;-59
2022/04/01 03:33:58;;;;;;;;;;;21.90;36.80;;;;;;464416;256;2202;-59
2022/04/01 03:35:59;;;;;;;;;;;21.90;36.70;;;;;;464612;256;1110;-60
2022/04/01 03:38:00;;;;;;;;;;;21.90;36.70;;;;;;464427;256;1054;-60
2022/04/01 03:40:02;;;;;;;;;;;21.80;36.90;;;;;;464442;256;1057;-60
2022/04/01 03:42:06;;;;;;;;;;;21.80;36.80;;;;;;464400;256;1123;-60
2022/04/01 03:44:05;;;;;;;;;;;21.90;36.50;;;;;;464325;257;1348;-59
2022/04/01 03:46:06;;;;;;;;;;;22.00;36.30;;;;;;464437;256;1313;-59
2022/04/01 03:48:07;;;;;;;;;;;22.20;36.10;;;;;;464429;256;1150;-59
2022/04/01 03:50:09;;;;;;;;;;;22.20;35.80;;;;;;464474;256;1121;-60
2022/04/01 03:52:10;;;;;;;;;;;22.30;35.70;;;;;;464389;256;1463;-60
2022/04/01 03:54:11;;;;;;;;;;;22.40;35.60;;;;;;464608;256;1074;-60
2022/04/01 03:56:12;;;;;;;;;;;22.40;35.40;;;;;;464575;256;1227;-60
2022/04/01 03:58:14;;;;;;;;;;;22.60;35.20;;;;;;464668;256;1199;-60
2022/04/01 04:00:15;;;;;;;;;;;22.60;35.00;;;;;;464474;256;1173;-60
2022/04/01 04:02:16;;;;;;;;;;;22.80;34.60;;;;;;464385;256;1277;-59
2022/04/01 04:04:18;;;;;;;;;;;22.80;34.60;;;;;;464628;256;986;-59
2022/04/01 04:06:19;;;;;;;;;;;22.80;34.60;;;;;;464548;256;1233;-59
2022/04/01 04:08:22;;;;;;;;;;;22.70;34.70;;;;;;464436;256;1124;-59
2022/04/01 04:10:27;;;;;;;;;;;22.60;34.80;;;;;;464527;256;1851;-59
2022/04/01 04:12:23;;;;;;;;;;;22.50;35.10;;;;;;464041;257;2147;-60
2022/04/01 04:14:27;;;;;;;;;;;22.30;35.10;;;;;;464701;256;1103;-59
2022/04/01 04:16:27;;;;;;;;;;;22.20;35.40;;;;;;464299;257;2150;-60
2022/04/01 04:18:27;;;;;;;;;;;22.20;35.30;;;;;;464433;256;1414;-60
2022/04/01 04:20:29;;;;;;;;;;;22.10;35.30;;;;;;464776;256;1063;-60
2022/04/01 04:22:30;;;;;;;;;;;22.10;35.30;;;;;;464459;256;1255;-60
2022/04/01 04:24:31;;;;;;;;;;;22.20;35.20;;;;;;464471;256;1243;-60
2022/04/01 04:26:34;;;;;;;;;;;22.10;35.40;;;;;;464550;256;1368;-59
2022/04/01 04:28:34;;;;;;;;;;;21.90;35.50;;;;;;464428;257;1969;-60
2022/04/01 04:30:35;;;;;;;;;;;21.70;35.80;;;;;;464501;256;1362;-59
2022/04/01 04:32:36;;;;;;;;;;;21.70;35.70;;;;;;464565;256;2139;-60
2022/04/01 04:34:38;;;;;;;;;;;21.80;35.70;;;;;;464567;256;1094;-60
2022/04/01 04:36:39;;;;;;;;;;;21.80;35.60;;;;;;464446;256;1029;-59
2022/04/01 04:38:41;;;;;;;;;;;21.70;35.60;;;;;;464404;256;1058;-60
2022/04/01 04:40:42;;;;;;;;;;;21.70;35.60;;;;;;464394;256;1056;-60
2022/04/01 04:42:45;;;;;;;;;;;21.60;35.70;;;;;;464295;256;1195;-60
2022/04/01 04:44:46;;;;;;;;;;;21.50;35.80;;;;;;464367;256;1052;-59
2022/04/01 04:46:48;;;;;;;;;;;21.50;35.90;;;;;;464263;256;1321;-59
2022/04/01 04:48:49;;;;;;;;;;;21.50;35.80;;;;;;464351;256;998;-59
2022/04/01 04:50:50;;;;;;;;;;;21.50;35.80;;;;;;464500;256;1092;-59
2022/04/01 04:52:52;;;;;;;;;;;21.50;35.80;;;;;;464247;256;2202;-59
2022/04/01 04:54:53;;;;;;;;;;;21.40;35.70;;;;;;464505;256;1127;-59
2022/04/01 04:56:54;;;;;;;;;;;21.50;35.70;;;;;;464221;256;1247;-60
2022/04/01 04:58:56;;;;;;;;;;;21.50;35.70;;;;;;464410;256;1136;-59
2022/04/01 05:00:57;;;;;;;;;;;21.40;35.60;;;;;;464229;256;1208;-60
2022/04/01 05:02:58;;;;;;;;;;;21.50;35.70;;;;;;464428;256;1033;-59
2022/04/01 05:05:00;;;;;;;;;;;21.40;35.70;;;;;;464263;256;1276;-59
2022/04/01 05:07:01;;;;;;;;;;;21.40;35.80;;;;;;464182;256;1063;-59
2022/04/01 05:09:02;;;;;;;;;;;21.40;35.70;;;;;;464276;256;1064;-60
2022/04/01 05:11:05;;;;;;;;;;;21.40;35.60;;;;;;464382;256;1105;-60
2022/04/01 05:13:08;;;;;;;;;;;21.40;35.70;;;;;;464154;256;2291;-59
2022/04/01 05:15:08;;;;;;;;;;;21.30;35.80;;;;;;464080;257;1899;-59
2022/04/01 05:17:08;;;;;;;;;;;21.40;35.60;;;;;;464108;256;1915;-59
2022/04/01 05:19:09;;;;;;;;;;;21.30;35.80;;;;;;464149;256;1078;-59
2022/04/01 05:21:10;;;;;;;;;;;21.30;35.70;;;;;;464134;256;1104;-59
2022/04/01 05:23:12;;;;;;;;;;;21.30;35.70;;;;;;464439;257;1262;-59
2022/04/01 05:25:13;;;;;;;;;;;21.30;35.70;;;;;;464194;256;985;-60
2022/04/01 05:27:15;;;;;;;;;;;21.30;35.60;;;;;;464226;256;1331;-59
2022/04/01 05:29:17;;;;;;;;;;;21.40;35.40;;;;;;464054;256;1178;-60
2022/04/01 05:31:18;;;;;;;;;;;21.50;35.30;;;;;;464003;257;1447;-59
2022/04/01 05:33:19;;;;;;;;;;;21.60;35.10;;;;;;464166;256;2174;-60
2022/04/01 05:35:21;;;;;;;;;;;21.70;34.80;;;;;;464204;256;1085;-60
2022/04/01 05:37:25;;;;;;;;;;;21.80;34.70;;;;;;464120;256;1634;-60
2022/04/01 05:39:23;;;;;;;;;;;21.90;34.50;;;;;;463997;257;1224;-60
2022/04/01 05:41:25;;;;;;;;;;;22.10;34.30;;;;;;464116;256;1665;-59
2022/04/01 05:43:28;;;;;;;;;;;22.10;34.10;;;;;;464214;256;1096;-60
2022/04/01 05:45:28;;;;;;;;;;;22.20;34.00;;;;;;464109;256;2557;-60
2022/04/01 05:47:30;;;;;;;;;;;22.20;33.80;;;;;;464107;256;1167;-60
2022/04/01 05:49:30;;;;;;;;;;;22.30;33.70;;;;;;464132;256;1606;-59
2022/04/01 05:51:32;;;;;;;;;;;22.30;33.70;;;;;;464171;256;1391;-60
2022/04/01 05:53:33;;;;;;;;;;;22.30;33.70;;;;;;464119;256;2194;-60
2022/04/01 05:55:35;;;;;;;;;;;22.30;33.70;;;;;;464132;256;1321;-59
2022/04/01 05:57:36;;;;;;;;;;;22.20;33.70;;;;;;464087;256;1059;-60
2022/04/01 05:59:38;;;;;;;;;;;22.20;33.80;;;;;;464176;256;1094;-59
2022/04/01 06:01:40;;;;;;;;;;;22.10;34.00;;;;;;464013;256;1414;-59
2022/04/01 06:03:40;;;;;;;;;;;21.90;34.30;;;;;;463942;257;1327;-60
2022/04/01 06:05:41;;;;;;;;;;;21.80;34.40;;;;;;464070;256;1204;-59
2022/04/01 06:07:42;;;;;;;;;;;21.80;34.40;;;;;;463983;256;1227;-60
2022/04/01 06:09:44;;;;;;;;;;;21.60;34.50;;;;;;464117;256;1072;-59
2022/04/01 06:11:45;;;;;;;;;;;21.60;34.70;;;;;;464129;256;1355;-60
2022/04/01 06:13:46;;;;;;;;;;;21.50;34.70;;;;;;464104;256;2139;-60
2022/04/01 06:15:48;;;;;;;;;;;21.40;34.90;;;;;;464072;256;1282;-60
2022/04/01 06:17:49;;;;;;;;;;;21.40;34.90;;;;;;463961;256;1166;-60
2022/04/01 06:19:50;;;;;;;;;;;21.40;34.90;;;;;;464120;256;1072;-59
2022/04/01 06:21:52;;;;;;;;;;;21.40;34.70;;;;;;463985;256;1356;-59
2022/04/01 06:23:53;;;;;;;;;;;21.40;34.70;;;;;;464226;256;1044;-60
2022/04/01 06:25:54;;;;;;;;;;;21.40;34.80;;;;;;464088;256;1138;-60
2022/04/01 06:27:56;;;;;;;;;;;21.30;34.80;;;;;;463982;256;1293;-59
2022/04/01 06:29:57;;;;;;;;;;;21.40;34.80;;;;;;463980;256;1011;-60
2022/04/01 06:31:58;;;;;;;;;;;21.40;34.70;;;;;;463803;256;1340;-60
2022/04/01 06:34:00;;;;;;;;;;;21.40;34.60;;;;;;464065;256;2152;-60
2022/04/01 06:36:01;;;;;;;;;;;21.40;34.70;;;;;;464003;256;1255;-59
2022/04/01 06:38:02;;;;;;;;;;;21.30;34.50;;;;;;464005;256;1061;-59
2022/04/01 06:40:04;;;;;;;;;;;21.40;34.60;;;;;;463928;256;1054;-59
2022/04/01 06:42:05;;;;;;;;;;;21.40;34.60;;;;;;463946;256;1209;-60
2022/04/01 06:44:06;;;;;;;;;;;21.40;34.50;;;;;;463940;256;1108;-59
2022/04/01 06:46:08;;;;;;;;;;;21.30;34.50;;;;;;463941;256;1348;-60
2022/04/01 06:48:09;;;;;;;;;;;21.30;34.50;;;;;;463983;256;1431;-60
2022/04/01 06:50:10;;;;;;;;;;;21.30;34.50;;;;;;464012;256;986;-60
2022/04/01 06:52:11;;;;;;;;;;;21.30;34.60;;;;;;463945;256;1370;-59
2022/04/01 06:54:13;;;;;;;;;;;21.30;34.60;;;;;;463866;256;2213;-59
2022/04/01 06:56:14;;;;;;;;;;;21.30;34.40;;;;;;463768;256;1149;-59
2022/04/01 06:58:15;;;;;;;;;;;21.30;34.50;;;;;;464037;256;1144;-59
2022/04/01 07:00:17;;;;;;;;;;;21.20;34.50;;;;;;463961;256;1266;-59
2022/04/01 07:02:18;;;;;;;;;;;21.30;34.50;;;;;;463938;256;1156;-60
2022/04/01 07:04:19;;;;;;;;;;;21.30;34.40;;;;;;463826;256;1225;-61
2022/04/01 07:06:22;;;;;;;;;;;21.30;34.30;;;;;;463832;256;1454;-60
2022/04/01 07:08:22;;;;;;;;;;;21.30;34.30;;;;;;463798;256;1353;-60
2022/04/01 07:10:24;;;;;;;;;;;21.40;34.50;;;;;;463779;256;1085;-60
2022/04/01 07:12:25;;;;;;;;;;;21.50;34.50;;;;;;463677;256;1385;-60
2022/04/01 07:14:27;;;;;;;;;;;21.60;34.20;;;;;;463742;256;3100;-60
2022/04/01 07:16:29;;;;;;;;;;;21.60;34.10;;;;;;463694;256;1149;-60
2022/04/01 07:18:30;;;;;;;;;;;21.70;33.80;;;;;;463830;256;1168;-60
2022/04/01 07:20:31;;;;;;;;;;;21.80;33.70;;;;;;463620;256;1267;-59
2022/04/01 07:22:35;;;;;;;;;;;21.90;33.30;;;;;;463687;256;1091;-60
2022/04/01 07:24:34;;;;;;;;;;;22.00;33.10;;;;;;463696;257;1288;-60
2022/04/01 07:26:35;;;;;;;;;;;22.10;33.00;;;;;;463834;256;1344;-60
2022/04/01 07:28:36;;;;;;;;;;;22.10;32.80;;;;;;463840;256;1126;-61
2022/04/01 07:30:38;;;;;;;;;;;22.30;32.70;;;;;;463769;256;1119;-60
2022/04/01 07:32:40;;;;;;;;;;;22.30;32.50;;;;;;463664;256;1270;-60
2022/04/01 07:34:40;;;;;;;;;;;22.40;32.40;;;;;;463634;256;2190;-60
2022/04/01 07:36:42;;;;;;;;;;;22.50;32.20;;;;;;463782;256;1366;-60
2022/04/01 07:38:44;;;;;;;;;;;22.50;32.10;;;;;;463768;256;1091;-61
2022/04/01 07:40:44;;;;;;;;;;;22.60;32.10;;;;;;463622;257;1336;-61
2022/04/01 07:42:46;;;;;;;;;;;22.50;32.10;;;;;;463752;256;1113;-60
2022/04/01 07:44:47;;;;;;;;;;;22.40;32.10;;;;;;463715;256;1162;-60
2022/04/01 07:46:48;;;;;;;;;;;22.30;32.30;;;;;;463545;256;1064;-61
2022/04/01 07:48:50;;;;;;;;;;;22.30;32.30;;;;;;463914;256;1197;-60
2022/04/01 07:50:51;;;;;;;;;;;22.30;32.30;;;;;;463934;256;1365;-61
2022/04/01 07:52:52;;;;;;;;;;;22.20;32.30;;;;;;463675;256;1470;-60
2022/04/01 07:54:54;;;;;;;;;;;22.20;32.30;;;;;;463565;256;2183;-60
2022/04/01 07:56:55;;;;;;;;;;;22.10;32.30;;;;;;463714;256;1181;-60
2022/04/01 07:58:56;;;;;;;;;;;22.10;32.40;;;;;;463988;256;1052;-60
2022/04/01 08:00:59;;;;;;;;;;;22.10;32.50;;;;;;463787;256;1261;-60
2022/04/01 08:02:59;;;;;;;;;;;22.00;32.40;;;;;;463784;256;1977;-60
2022/04/01 08:05:00;;;;;;;;;;;22.00;32.40;;;;;;463849;256;1492;-60
2022/04/01 08:07:02;;;;;;;;;;;22.00;32.50;;;;;;463761;256;1192;-60
2022/04/01 08:09:03;;;;;;;;;;;21.90;32.40;;;;;;463885;256;1077;-61
2022/04/01 08:11:04;;;;;;;;;;;21.90;32.40;;;;;;463809;256;1312;-60
2022/04/01 08:13:05;;;;;;;;;;;21.90;32.30;;;;;;463850;256;1111;-60
2022/04/01 08:15:07;;;;;;;;;;;21.90;32.30;;;;;;463766;256;2206;-60
2022/04/01 08:17:11;;;;;;;;;;;21.90;32.30;;;;;;463709;256;1212;-61
2022/04/01 08:19:09;;;;;;;;;;;21.90;32.30;;;;;;463534;257;1322;-59
2022/04/01 08:21:11;;;;;;;;;;;21.80;32.40;;;;;;463587;256;1504;-60
2022/04/01 08:23:12;;;;;;;;;;;21.80;32.40;;;;;;463702;256;1179;-60
2022/04/01 08:25:15;;;;;;;;;;;21.80;32.30;;;;;;463698;256;1112;-60
2022/04/01 08:27:15;;;;;;;;;;;21.80;32.40;;;;;;463656;257;1352;-60
2022/04/01 08:29:16;;;;;;;;;;;21.80;32.30;;;;;;463948;256;1066;-60
2022/04/01 08:31:17;;;;;;;;;;;21.80;32.30;;;;;;463907;256;1238;-61
2022/04/01 08:33:20;;;;;;;;;;;21.80;32.30;;;;;;463876;256;1223;-60
2022/04/01 08:35:20;;;;;;;;;;;21.80;32.30;;;;;;463840;256;2130;-59
2022/04/01 08:37:21;;;;;;;;;;;21.90;32.10;;;;;;463843;256;1250;-61
2022/04/01 08:39:23;;;;;;;;;;;21.90;32.00;;;;;;463910;256;1192;-60
2022/04/01 08:41:24;;;;;;;;;;;21.80;32.10;;;;;;463862;256;1202;-60
2022/04/01 08:43:26;;;;;;;;;;;21.80;32.10;;;;;;463966;256;1068;-61
2022/04/01 08:45:27;;;;;;;;;;;21.80;32.10;;;;;;463868;256;1079;-60
2022/04/01 08:47:29;;;;;;;;;;;21.80;32.20;;;;;;463818;256;1048;-61
2022/04/01 08:49:30;;;;;;;;;;;21.80;32.10;;;;;;463816;256;1220;-60
2022/04/01 08:51:32;;;;;;;;;;;21.80;32.10;;;;;;463732;256;1115;-60
2022/04/01 08:53:32;;;;;;;;;;;21.80;32.10;;;;;;463677;256;1459;-60
2022/04/01 08:55:34;;;;;;;;;;;21.80;32.10;;;;;;463719;256;2198;-60
2022/04/01 08:57:35;;;;;;;;;;;21.70;32.10;;;;;;463772;256;1077;-60
2022/04/01 08:59:37;;;;;;;;;;;21.70;32.00;;;;;;463884;256;1115;-60
2022/04/01 09:01:38;;;;;;;;;;;21.70;32.10;;;;;;463768;256;1084;-60
2022/04/01 09:03:39;;;;;;;;;;;21.70;32.10;;;;;;463796;256;1174;-60
2022/04/01 09:05:40;;;;;;;;;;;21.70;32.00;;;;;;463923;256;1107;-59
2022/04/01 09:07:43;;;;;;;;;;;21.70;31.80;;;;;;463735;256;1140;-60
2022/04/01 09:09:43;;;;;;;;;;;21.80;31.80;;;;;;463751;257;1355;-60
2022/04/01 09:11:44;;;;;;;;;;;21.80;31.90;;;;;;463842;256;1391;-61
2022/04/01 09:13:46;;;;;;;;;;;21.80;31.80;;;;;;463715;256;1102;-60
2022/04/01 09:15:47;;;;;;;;;;;21.70;31.90;;;;;;463805;256;2155;-60
2022/04/01 09:17:48;;;;;;;;;;;21.70;32.00;;;;;;463794;256;1210;-59
2022/04/01 09:19:50;;;;;;;;;;;21.70;31.90;;;;;;463842;256;1177;-60
2022/04/01 09:21:51;;;;;;;;;;;21.70;31.90;;;;;;463780;256;1132;-61
2022/04/01 09:23:52;;;;;;;;;;;21.70;31.80;;;;;;463644;256;1114;-60
2022/04/01 09:25:54;;;;;;;;;;;21.70;31.80;;;;;;463711;256;1142;-60
2022/04/01 09:27:55;;;;;;;;;;;21.70;31.80;;;;;;463682;256;1131;-60
2022/04/01 09:29:56;;;;;;;;;;;21.60;32.00;;;;;;463814;256;1193;-60
2022/04/01 09:31:58;;;;;;;;;;;21.60;31.90;;;;;;463605;256;1312;-59
2022/04/01 09:33:59;;;;;;;;;;;21.70;31.90;;;;;;463854;256;1205;-61
2022/04/01 09:36:00;;;;;;;;;;;21.70;31.80;;;;;;463805;257;2142;-60
2022/04/01 09:38:03;;;;;;;;;;;21.60;31.80;;;;;;463823;256;1074;-61
2022/04/01 09:40:03;;;;;;;;;;;21.70;31.90;;;;;;463968;256;1450;-60
2022/04/01 09:42:05;;;;;;;;;;;21.70;31.80;;;;;;463878;256;1168;-61
2022/04/01 09:44:06;;;;;;;;;;;21.60;31.90;;;;;;463848;256;1037;-60
2022/04/01 09:46:07;;;;;;;;;;;21.70;31.80;;;;;;463826;256;1140;-61
2022/04/01 09:48:08;;;;;;;;;;;21.70;31.70;;;;;;463888;256;1035;-60
2022/04/01 09:50:10;;;;;;;;;;;21.80;31.60;;;;;;463855;256;1288;-61
2022/04/01 09:52:11;;;;;;;;;;;21.90;31.50;;;;;;463701;256;1351;-60
2022/04/01 09:54:12;;;;;;;;;;;22.00;31.40;;;;;;463906;256;1213;-60
2022/04/01 09:56:14;;;;;;;;;;;22.10;31.20;;;;;;463816;256;2131;-60
2022/04/01 09:58:15;;;;;;;;;;;22.20;31.10;;;;;;463860;256;1075;-60
2022/04/01 10:00:17;;;;;;;;;;;22.30;31.10;;;;;;463783;256;1047;-60
2022/04/01 10:02:18;;;;;;;;;;;22.40;31.00;;;;;;463700;256;1121;-60
2022/04/01 10:04:19;;;;;;;;;;;22.40;30.90;;;;;;463737;256;1228;-61
2022/04/01 10:06:21;;;;;;;;;;;22.50;30.70;;;;;;463786;256;1328;-60
2022/04/01 10:08:22;;;;;;;;;;;22.60;30.70;;;;;;463699;256;1073;-60
2022/04/01 10:10:23;;;;;;;;;;;22.60;30.70;;;;;;463758;256;1268;-60
2022/04/01 10:12:25;;;;;;;;;;;22.60;30.80;;;;;;463918;256;1134;-59
2022/04/01 10:14:26;;;;;;;;;;;22.40;30.90;;;;;;463958;256;2190;-60
2022/04/01 10:16:27;;;;;;;;;;;22.30;31.00;;;;;;463832;256;1223;-60
2022/04/01 10:18:29;;;;;;;;;;;22.30;31.10;;;;;;463897;256;1135;-60
2022/04/01 10:20:30;;;;;;;;;;;22.20;31.20;;;;;;463856;256;1215;-60
2022/04/01 10:22:32;;;;;;;;;;;22.10;31.30;;;;;;463756;256;1103;-60
2022/04/01 10:24:33;;;;;;;;;;;22.10;31.40;;;;;;463759;256;1069;-60
2022/04/01 10:26:34;;;;;;;;;;;22.00;31.40;;;;;;463686;256;1332;-59
2022/04/01 10:28:36;;;;;;;;;;;22.10;31.30;;;;;;463856;256;1165;-60
2022/04/01 10:30:37;;;;;;;;;;;22.10;31.30;;;;;;463836;256;1743;-60
2022/04/01 10:32:38;;;;;;;;;;;22.00;31.40;;;;;;463802;256;1298;-60
2022/04/01 10:34:39;;;;;;;;;;;22.00;31.50;;;;;;463723;256;2217;-60
2022/04/01 10:36:43;;;;;;;;;;;21.90;31.50;;;;;;463731;256;1191;-60
2022/04/01 10:38:42;;;;;;;;;;;21.90;31.60;;;;;;463791;256;1942;-59
2022/04/01 10:40:44;;;;;;;;;;;21.90;31.60;;;;;;463863;256;1227;-60
2022/04/01 10:42:45;;;;;;;;;;;21.80;31.60;;;;;;463902;256;1888;-60
2022/04/01 10:44:46;;;;;;;;;;;21.80;31.60;;;;;;463837;256;1095;-60
2022/04/01 10:46:47;;;;;;;;;;;21.80;31.50;;;;;;463657;256;1214;-60
2022/04/01 10:53:27;;;;;;;;;;;21.80;31.60;;;;;;463848;257;1215;-60
2022/04/01 10:55:28;;;;;;;;;;;21.80;31.70;;;;;;463896;256;2134;-60
2022/04/01 10:57:30;;;;;;;;;;;21.80;31.70;;;;;;463887;256;1136;-60
2022/04/01 10:59:31;;;;;;;;;;;21.70;31.70;;;;;;463969;256;1056;-61
2022/04/01 11:01:32;;;;;;;;;;;21.70;31.60;;;;;;463815;256;1368;-60
2022/04/01 11:03:34;;;;;;;;;;;21.70;31.70;;;;;;463992;256;1206;-60
2022/04/01 11:05:35;;;;;;;;;;;21.70;31.60;;;;;;463732;256;1202;-60
2022/04/01 11:07:37;;;;;;;;;;;21.80;31.60;;;;;;463805;256;1223;-60
2022/04/01 11:09:38;;;;;;;;;;;21.70;31.50;;;;;;463865;256;1535;-60
2022/04/01 11:11:39;;;;;;;;;;;21.80;31.60;;;;;;463840;256;1174;-60
2022/04/01 11:13:40;;;;;;;;;;;21.80;31.50;;;;;;463820;256;1094;-60
2022/04/01 11:15:42;;;;;;;;;;;21.90;31.40;;;;;;463674;256;2210;-60
2022/04/01 11:17:43;;;;;;;;;;;21.80;31.50;;;;;;463741;256;1195;-60
2022/04/01 11:19:45;;;;;;;;;;;21.80;31.50;;;;;;463737;256;1182;-60
2022/04/01 11:21:46;;;;;;;;;;;21.80;31.50;;;;;;463662;257;1302;-60
2022/04/01 11:23:47;;;;;;;;;;;21.80;31.50;;;;;;463875;256;1272;-60
2022/04/01 11:25:51;;;;;;;;;;;21.80;31.40;;;;;;463951;256;1129;-59
2022/04/01 11:27:50;;;;;;;;;;;21.90;31.40;;;;;;463724;256;1357;-60
2022/04/01 11:29:52;;;;;;;;;;;21.80;31.40;;;;;;463888;256;1180;-61
2022/04/01 11:31:53;;;;;;;;;;;21.90;31.40;;;;;;463773;256;1346;-60
2022/04/01 11:33:54;;;;;;;;;;;21.90;31.30;;;;;;463876;256;1088;-60
2022/04/01 11:35:57;;;;;;;;;;;21.90;31.30;;;;;;463850;256;2135;-60
2022/04/01 11:37:57;;;;;;;;;;;21.90;31.30;;;;;;463791;256;1453;-60
2022/04/01 11:39:59;;;;;;;;;;;21.80;31.30;;;;;;463972;256;1066;-60
2022/04/01 11:42:01;;;;;;;;;;;21.90;31.30;;;;;;463896;256;1300;-59
2022/04/01 11:44:01;;;;;;;;;;;21.80;31.30;;;;;;463799;257;2146;-60
2022/04/01 11:46:03;;;;;;;;;;;21.80;31.30;;;;;;463716;256;1371;-60
2022/04/01 11:48:04;;;;;;;;;;;21.80;31.50;;;;;;463739;256;1340;-61
2022/04/01 11:50:06;;;;;;;;;;;21.70;31.50;;;;;;463952;256;1700;-60
2022/04/01 11:52:06;;;;;;;;;;;21.60;31.60;;;;;;463755;256;1857;-60
2022/04/01 11:54:10;;;;;;;;;;;21.60;31.60;;;;;;463953;256;1098;-60
2022/04/01 11:56:10;;;;;;;;;;;21.70;31.60;;;;;;463757;257;2205;-60
2022/04/01 11:58:10;;;;;;;;;;;21.70;31.60;;;;;;463885;256;1456;-60
2022/04/01 12:00:12;;;;;;;;;;;21.60;31.50;;;;;;463770;256;1064;-60
2022/04/01 12:02:13;;;;;;;;;;;21.70;31.50;;;;;;463743;256;1287;-60
2022/04/01 12:04:14;;;;;;;;;;;21.70;31.50;;;;;;463949;256;1015;-60
2022/04/01 12:08:41;;;;;;;;;;;21.60;31.70;;;;;;463871;256;1088;-60